Time;durP1;ratioP1;P1;durP2;ratioP2;P2;SDS_P1;SDS_P2;PMS_P1;PMS_P2;Temp;Humidity;BMP_temperature;BMP_pressure;BME280_temperature;BME280_humidity;BME280_pressure;Samples;Min_cycle;Max_cycle;Signal;HPM_P1;HPM_P2
2022/09/08 00:01:16;;;;;;;7.78;3.40;;;15.20;99.90;;;;;;5033346;28;19986;-57
2022/09/08 00:03:43;;;;;;;3.17;2.67;;;15.20;99.90;;;;;;5032094;28;20567;-56
2022/09/08 00:06:12;;;;;;;4.50;2.85;;;15.20;99.90;;;;;;5033105;28;20051;-56
2022/09/08 00:08:40;;;;;;;5.93;3.03;;;15.20;99.90;;;;;;5032960;28;20048;-55
2022/09/08 00:11:09;;;;;;;3.45;2.90;;;15.20;99.90;;;;;;5031568;28;20138;-55
2022/09/08 00:13:38;;;;;;;5.07;3.00;;;15.20;99.90;;;;;;5032213;28;20079;-54
2022/09/08 00:16:10;;;;;;;3.75;2.42;;;15.20;99.90;;;;;;5031563;28;20073;-55
2022/09/08 00:18:39;;;;;;;8.50;2.22;;;15.20;99.90;;;;;;5032168;28;20049;-56
2022/09/08 00:21:07;;;;;;;5.45;2.92;;;15.20;99.90;;;;;;5026356;28;20037;-56
2022/09/08 00:23:34;;;;;;;5.78;2.75;;;15.20;99.90;;;;;;5028135;28;20048;-54
2022/09/08 00:26:01;;;;;;;4.30;2.30;;;15.20;99.90;;;;;;5031874;28;20049;-55
2022/09/08 00:28:28;;;;;;;3.53;2.03;;;15.20;99.90;;;;;;5031957;28;20064;-55
2022/09/08 00:30:55;;;;;;;5.50;2.70;;;15.20;99.90;;;;;;5032217;28;20052;-54
2022/09/08 00:33:22;;;;;;;3.90;3.13;;;15.20;99.90;;;;;;5031780;28;20079;-57
2022/09/08 00:35:51;;;;;;;2.83;2.53;;;15.20;99.90;;;;;;5032160;28;20571;-55
2022/09/08 00:38:19;;;;;;;2.90;2.63;;;15.10;99.90;;;;;;5031881;28;20049;-57
2022/09/08 00:40:46;;;;;;;5.43;2.58;;;15.10;99.90;;;;;;5032055;28;20049;-56
2022/09/08 00:43:32;;;;;;;4.70;2.97;;;15.10;99.90;;;;;;5032251;28;20075;-56
2022/09/08 00:46:08;;;;;;;4.53;2.65;;;15.10;99.90;;;;;;5031634;28;20041;-55
2022/09/08 00:48:40;;;;;;;3.42;2.60;;;15.10;99.90;;;;;;5030873;28;20048;-56
2022/09/08 00:51:07;;;;;;;6.45;3.05;;;15.00;99.90;;;;;;5031742;28;20045;-56
2022/09/08 00:53:37;;;;;;;3.55;2.70;;;15.00;99.90;;;;;;5032155;28;20037;-55
2022/09/08 00:56:05;;;;;;;8.65;3.60;;;15.00;99.90;;;;;;5031694;28;20123;-55
2022/09/08 00:58:39;;;;;;;6.07;3.22;;;15.00;99.90;;;;;;5032894;28;20045;-54
2022/09/08 01:01:08;;;;;;;4.03;3.28;;;15.00;99.90;;;;;;5032554;28;20045;-55
2022/09/08 01:03:38;;;;;;;4.68;2.83;;;15.00;99.90;;;;;;5031420;28;20140;-56
2022/09/08 01:06:17;;;;;;;7.05;3.33;;;15.00;99.90;;;;;;5032494;28;20102;-56
2022/09/08 01:14:44;;;;;;;5.00;3.33;;;15.00;99.90;;;;;;5030668;28;20633;-55
2022/09/08 01:17:29;;;;;;;3.45;2.95;;;15.00;99.90;;;;;;5031314;28;20045;-57
2022/09/08 01:19:58;;;;;;;9.07;3.30;;;15.00;99.90;;;;;;5031378;28;20041;-56
2022/09/08 01:23:12;;;;;;;7.30;3.45;;;15.10;99.90;;;;;;5029955;28;20048;-56
2022/09/08 01:26:19;;;;;;;4.18;3.28;;;15.10;99.90;;;;;;5025108;28;20122;-57
2022/09/08 01:28:55;;;;;;;5.95;2.75;;;15.10;99.90;;;;;;5032389;28;20136;-55
2022/09/08 01:31:23;;;;;;;3.67;3.13;;;15.10;99.90;;;;;;5035475;28;20037;-55
2022/09/08 01:33:50;;;;;;;7.07;4.22;;;15.10;99.90;;;;;;5035171;28;20049;-54
2022/09/08 01:36:18;;;;;;;6.88;3.40;;;15.10;99.90;;;;;;5035720;28;20051;-53
2022/09/08 01:38:45;;;;;;;3.88;3.45;;;15.10;99.90;;;;;;5035593;28;20116;-56
2022/09/08 01:41:13;;;;;;;7.43;3.90;;;15.20;99.90;;;;;;5035477;28;20041;-55
2022/09/08 01:43:40;;;;;;;6.80;3.80;;;15.10;99.90;;;;;;5035248;28;20790;-53
2022/09/08 01:46:07;;;;;;;;;;;15.10;99.90;;;;;;5036038;28;20634;-55
2022/09/08 01:48:35;;;;;;;4.73;3.33;;;15.10;99.90;;;;;;5035443;28;19950;-55
2022/09/08 01:51:06;;;;;;;5.40;3.30;;;15.10;99.90;;;;;;5034836;28;20060;-56
2022/09/08 01:53:33;;;;;;;7.20;3.10;;;15.10;99.90;;;;;;5035263;28;20136;-55
2022/09/08 01:56:01;;;;;;;3.55;3.25;;;15.10;99.90;;;;;;5034954;28;20068;-56
2022/09/08 01:58:28;;;;;;;4.32;2.97;;;15.10;99.90;;;;;;5035600;28;20037;-53
2022/09/08 02:00:56;;;;;;;;;;;15.00;99.90;;;;;;5034997;28;20838;-55
2022/09/08 02:03:23;;;;;;;5.03;2.83;;;15.00;99.90;;;;;;5035332;28;20932;-55
2022/09/08 02:05:50;;;;;;;5.88;3.30;;;15.00;99.90;;;;;;5035191;28;20124;-55
2022/09/08 02:08:17;;;;;;;;;;;15.00;99.90;;;;;;5035028;28;20044;-54
2022/09/08 02:10:53;;;;;;;4.22;3.03;;;15.00;99.90;;;;;;5034876;28;19931;-55
2022/09/08 02:13:20;;;;;;;4.35;3.20;;;15.00;99.90;;;;;;5034348;28;20045;-56
2022/09/08 02:15:47;;;;;;;3.65;2.90;;;15.10;99.90;;;;;;5019282;28;20076;-54
2022/09/08 02:18:14;;;;;;;;;;;15.00;99.90;;;;;;5015165;28;20048;-56
2022/09/08 02:20:41;;;;;;;3.58;3.17;;;15.00;99.90;;;;;;5015088;28;19972;-53
2022/09/08 02:23:07;;;;;;;2.30;2.10;;;15.00;99.90;;;;;;5030004;28;20045;-53
2022/09/08 02:25:34;;;;;;;4.40;3.00;;;15.00;99.90;;;;;;5034188;28;20772;-55
2022/09/08 02:28:01;;;;;;;;;;;15.00;99.90;;;;;;5035185;28;20673;-55
2022/09/08 02:30:28;;;;;;;2.90;2.47;;;14.90;99.90;;;;;;5033897;28;20008;-55
2022/09/08 02:32:55;;;;;;;5.63;3.00;;;14.90;99.90;;;;;;5034289;28;20048;-53
2022/09/08 02:35:21;;;;;;;;;;;14.90;99.90;;;;;;5035006;28;20144;-54
2022/09/08 02:37:48;;;;;;;4.32;2.47;;;14.90;99.90;;;;;;5034901;28;20500;-53
2022/09/08 02:40:15;;;;;;;6.65;2.80;;;14.90;99.90;;;;;;5034863;28;20106;-54
2022/09/08 02:42:44;;;;;;;3.13;2.40;;;14.90;99.90;;;;;;5033456;28;20899;-53
2022/09/08 02:45:11;;;;;;;2.15;1.90;;;14.90;99.90;;;;;;5034491;28;20081;-56
2022/09/08 02:47:38;;;;;;;5.03;2.42;;;14.80;99.90;;;;;;5031847;28;20065;-54
2022/09/08 02:50:05;;;;;;;;;;;14.80;99.90;;;;;;5034492;28;20047;-55
2022/09/08 02:52:32;;;;;;;1.88;1.67;;;14.80;99.90;;;;;;5034268;28;20445;-55
2022/09/08 02:54:59;;;;;;;;;;;14.70;99.90;;;;;;5034027;28;20044;-54
2022/09/08 02:57:26;;;;;;;2.22;1.80;;;14.70;99.90;;;;;;5034459;28;19931;-54
2022/09/08 02:59:52;;;;;;;;;;;14.70;99.90;;;;;;5034335;28;20131;-55
2022/09/08 03:02:19;;;;;;;1.80;1.30;;;14.70;99.90;;;;;;5018137;28;19971;-54
2022/09/08 03:04:46;;;;;;;3.92;1.55;;;14.60;99.90;;;;;;5033478;28;20650;-53
2022/09/08 03:07:12;;;;;;;;;;;14.60;99.90;;;;;;5034966;28;20069;-55
2022/09/08 03:09:39;;;;;;;1.67;1.30;;;14.60;99.90;;;;;;5032428;28;19931;-56
2022/09/08 03:12:07;;;;;;;3.90;1.10;;;14.50;99.90;;;;;;5033030;28;20044;-53
2022/09/08 03:14:34;;;;;;;1.52;0.82;;;14.50;99.90;;;;;;5027805;28;20663;-53
2022/09/08 03:17:00;;;;;;;;;;;14.50;99.90;;;;;;5014114;28;20038;-54
2022/09/08 03:19:27;;;;;;;2.10;1.27;;;14.40;99.90;;;;;;5014429;28;19924;-52
2022/09/08 03:21:54;;;;;;;;;;;14.40;99.90;;;;;;5016199;28;20763;-52
2022/09/08 03:24:21;;;;;;;2.47;1.27;;;14.40;99.90;;;;;;5030970;28;19936;-53
2022/09/08 03:26:47;;;;;;;3.00;1.05;;;14.30;99.90;;;;;;5034231;28;20590;-54
2022/09/08 03:29:14;;;;;;;2.15;1.15;;;14.30;99.90;;;;;;5033162;28;20049;-54
2022/09/08 03:31:41;;;;;;;;;;;14.30;99.90;;;;;;5034226;28;20462;-55
2022/09/08 03:34:07;;;;;;;1.42;0.88;;;14.30;99.90;;;;;;5032680;28;19956;-54
2022/09/08 03:36:35;;;;;;;;;;;14.30;99.90;;;;;;5033992;28;20045;-53
2022/09/08 03:39:01;;;;;;;2.17;1.20;;;14.20;99.90;;;;;;5032934;28;20597;-55
2022/09/08 03:41:28;;;;;;;5.95;1.15;;;14.30;99.90;;;;;;5032439;28;20043;-55
2022/09/08 03:43:55;;;;;;;;;;;14.20;99.90;;;;;;5033827;28;20058;-54
2022/09/08 03:46:22;;;;;;;4.03;1.08;;;14.20;99.90;;;;;;5032493;28;19924;-55
2022/09/08 03:48:49;;;;;;;5.60;0.80;;;14.20;99.90;;;;;;5033580;28;20126;-54
2022/09/08 03:51:22;;;;;;;3.70;0.98;;;14.20;99.90;;;;;;5033020;28;20052;-54
2022/09/08 03:53:49;;;;;;;4.25;1.00;;;14.20;99.90;;;;;;5031894;28;20045;-55
2022/09/08 03:56:16;;;;;;;;;;;14.20;99.90;;;;;;5033720;28;20040;-55
2022/09/08 03:58:44;;;;;;;0.80;0.80;;;14.20;99.90;;;;;;5032592;28;20043;-54
2022/09/08 04:01:17;;;;;;;0.75;0.70;;;14.20;99.90;;;;;;5032614;28;21034;-55
2022/09/08 04:03:44;;;;;;;1.13;0.63;;;14.20;99.90;;;;;;5032455;28;20048;-55
2022/09/08 04:06:13;;;;;;;0.57;0.52;;;14.20;99.90;;;;;;5033175;28;20730;-53
2022/09/08 04:08:39;;;;;;;3.30;0.77;;;14.20;99.90;;;;;;5032811;28;20778;-56
2022/09/08 04:11:06;;;;;;;;;;;14.20;99.90;;;;;;5032616;28;20033;-54
2022/09/08 04:13:33;;;;;;;1.00;0.60;;;14.20;99.90;;;;;;5033178;28;19963;-58
2022/09/08 04:16:03;;;;;;;0.50;0.50;;;14.20;99.90;;;;;;5015243;28;20080;-55
2022/09/08 04:18:30;;;;;;;1.25;0.55;;;14.20;99.90;;;;;;5014379;28;20041;-52
2022/09/08 04:21:03;;;;;;;1.65;0.73;;;14.10;99.90;;;;;;5013670;28;20125;-56
2022/09/08 04:23:30;;;;;;;0.90;0.47;;;14.10;99.90;;;;;;5028775;28;20049;-58
2022/09/08 04:26:03;;;;;;;6.03;0.77;;;14.10;99.90;;;;;;5031034;28;20714;-56
2022/09/08 04:28:30;;;;;;;1.42;0.60;;;14.10;99.90;;;;;;5033921;28;20133;-55
2022/09/08 04:30:57;;;;;;;0.70;0.70;;;14.10;99.90;;;;;;5033550;28;20045;-52
2022/09/08 04:33:23;;;;;;;1.25;0.80;;;14.10;99.90;;;;;;5033219;28;20047;-55
2022/09/08 04:35:50;;;;;;;;;;;14.10;99.90;;;;;;5034715;28;20036;-55
2022/09/08 04:38:37;;;;;;;1.10;0.70;;;14.10;99.90;;;;;;5033373;28;19928;-52
2022/09/08 04:41:05;;;;;;;5.07;0.80;;;14.10;99.90;;;;;;5032039;28;20041;-55
2022/09/08 04:43:33;;;;;;;0.55;0.55;;;14.10;99.90;;;;;;5033794;28;20073;-55
2022/09/08 04:46:06;;;;;;;2.42;0.70;;;14.10;99.90;;;;;;5033089;28;20053;-53
2022/09/08 04:48:33;;;;;;;0.70;0.50;;;14.10;99.90;;;;;;5032466;28;20138;-54
2022/09/08 04:51:01;;;;;;;0.77;0.68;;;14.10;99.90;;;;;;5032431;28;20124;-57
2022/09/08 04:53:29;;;;;;;0.95;0.60;;;14.10;99.90;;;;;;5033823;28;20128;-56
2022/09/08 04:55:56;;;;;;;1.13;0.60;;;14.10;99.90;;;;;;5033472;28;20571;-56
2022/09/08 04:58:23;;;;;;;3.55;0.95;;;14.00;99.90;;;;;;5034033;28;20045;-53
2022/09/08 05:00:50;;;;;;;;;;;14.00;99.90;;;;;;5033187;28;20103;-55
2022/09/08 05:03:16;;;;;;;0.65;0.60;;;14.00;99.90;;;;;;5032280;28;20536;-55
2022/09/08 05:05:43;;;;;;;1.35;0.80;;;14.00;99.90;;;;;;5036081;28;20045;-54
2022/09/08 05:08:10;;;;;;;1.30;0.80;;;14.00;99.90;;;;;;5035215;28;20041;-55
2022/09/08 05:10:37;;;;;;;1.55;0.82;;;13.90;99.90;;;;;;5035721;28;20825;-55
2022/09/08 05:13:04;;;;;;;0.65;0.65;;;13.90;99.90;;;;;;5036210;28;20068;-53
2022/09/08 05:15:30;;;;;;;;;;;13.90;99.90;;;;;;5023976;28;20172;-51
2022/09/08 05:17:57;;;;;;;0.77;0.65;;;13.90;99.90;;;;;;5015970;28;20602;-53
2022/09/08 05:20:24;;;;;;;1.85;0.90;;;13.90;99.90;;;;;;5016832;28;20120;-57
2022/09/08 05:22:50;;;;;;;;;;;13.80;99.90;;;;;;5027651;28;20059;-50
2022/09/08 05:25:17;;;;;;;0.82;0.65;;;13.80;99.90;;;;;;5032821;28;20460;-52
2022/09/08 05:27:44;;;;;;;1.08;0.82;;;13.80;99.90;;;;;;5036434;28;20132;-51
2022/09/08 05:30:11;;;;;;;1.40;0.70;;;13.80;99.90;;;;;;5036345;28;20041;-53
2022/09/08 05:32:38;;;;;;;1.08;0.80;;;13.80;99.90;;;;;;5036339;28;20044;-52
2022/09/08 05:35:07;;;;;;;;;;;13.80;99.90;;;;;;5037529;28;20200;-52
2022/09/08 05:37:34;;;;;;;1.55;0.60;;;13.70;99.90;;;;;;5036693;28;20011;-53
2022/09/08 05:40:01;;;;;;;1.02;0.77;;;13.70;99.90;;;;;;5036720;28;20049;-52
2022/09/08 05:42:28;;;;;;;4.82;1.20;;;13.70;99.90;;;;;;5036005;28;20596;-52
2022/09/08 05:44:55;;;;;;;;;;;13.70;99.90;;;;;;5036258;28;20076;-52
2022/09/08 05:47:21;;;;;;;2.33;0.70;;;13.70;99.90;;;;;;5035887;28;20676;-50
2022/09/08 05:49:48;;;;;;;;;;;13.70;99.90;;;;;;5037434;28;20044;-52
2022/09/08 05:52:15;;;;;;;3.90;0.93;;;13.70;99.90;;;;;;5036994;28;20026;-52
2022/09/08 05:54:42;;;;;;;;;;;13.60;99.90;;;;;;5036919;28;20055;-48
2022/09/08 05:57:08;;;;;;;6.70;1.40;;;13.60;99.90;;;;;;5035717;28;20671;-49
2022/09/08 05:59:35;;;;;;;2.50;1.00;;;13.60;99.90;;;;;;5035605;28;20045;-52
2022/09/08 06:02:02;;;;;;;4.70;0.82;;;13.60;99.90;;;;;;5036154;28;20049;-57
2022/09/08 06:04:28;;;;;;;1.13;0.80;;;13.60;99.90;;;;;;5035947;28;20706;-54
2022/09/08 06:07:01;;;;;;;1.10;0.80;;;13.60;99.90;;;;;;5036639;28;20071;-54
2022/09/08 06:09:28;;;;;;;0.70;0.70;;;13.60;99.90;;;;;;5034873;28;20054;-54
2022/09/08 06:11:55;;;;;;;4.15;0.90;;;13.50;99.90;;;;;;5035463;28;20041;-53
2022/09/08 06:14:21;;;;;;;1.38;1.15;;;13.60;99.90;;;;;;5031609;28;20039;-55
2022/09/08 06:16:48;;;;;;;1.98;1.25;;;13.50;99.90;;;;;;5030381;28;20626;-53
2022/09/08 06:19:15;;;;;;;;;;;13.50;99.90;;;;;;5018386;28;20063;-53
2022/09/08 06:21:41;;;;;;;3.75;1.50;;;13.50;99.90;;;;;;5035767;28;20035;-54
2022/09/08 06:24:10;;;;;;;;;;;13.50;99.90;;;;;;5036782;28;20051;-51
2022/09/08 06:26:50;;;;;;;3.03;1.27;;;13.50;99.90;;;;;;5034434;28;19974;-52
2022/09/08 06:29:54;;;;;;;6.28;1.17;;;13.50;99.90;;;;;;5033960;28;20048;-54
2022/09/08 06:32:36;;;;;;;1.20;1.10;;;13.60;99.90;;;;;;5036459;28;20044;-54
2022/09/08 06:35:23;;;;;;;3.20;1.02;;;13.60;99.90;;;;;;5035162;28;20063;-53
2022/09/08 06:37:56;;;;;;;0.82;0.75;;;13.60;99.90;;;;;;5036343;28;20044;-54
2022/09/08 06:40:39;;;;;;;1.25;1.05;;;13.60;99.90;;;;;;5035149;28;20045;-54
2022/09/08 06:43:44;;;;;;;3.42;1.10;;;13.60;99.90;;;;;;5033717;28;20045;-51
2022/09/08 06:46:18;;;;;;;4.05;1.42;;;13.60;99.90;;;;;;5034323;28;20152;-53
2022/09/08 06:48:45;;;;;;;5.80;1.48;;;13.70;99.90;;;;;;5035786;28;20055;-54
2022/09/08 06:51:34;;;;;;;;;;;13.70;99.90;;;;;;5033628;28;20758;-51
2022/09/08 06:54:44;;;;;;;4.38;1.35;;;13.70;99.90;;;;;;5034333;28;20376;-53
2022/09/08 06:57:22;;;;;;;3.08;1.35;;;13.80;99.90;;;;;;5011681;28;20742;-53
2022/09/08 07:00:10;;;;;;;7.93;1.75;;;13.80;99.90;;;;;;5034770;28;20047;-51
2022/09/08 07:02:52;;;;;;;1.92;1.00;;;13.80;99.90;;;;;;5034858;28;20063;-55
2022/09/08 07:05:56;;;;;;;1.70;1.20;;;13.90;99.90;;;;;;5035621;28;20049;-54
2022/09/08 07:08:38;;;;;;;4.57;1.30;;;14.00;99.90;;;;;;5035252;28;20611;-55
2022/09/08 07:11:23;;;;;;;1.23;1.13;;;14.10;99.90;;;;;;5032485;28;20049;-53
2022/09/08 07:14:25;;;;;;;1.02;0.88;;;14.30;99.90;;;;;;5024739;28;20049;-55
2022/09/08 07:16:58;;;;;;;1.38;1.10;;;14.40;99.90;;;;;;5025690;28;20079;-55
2022/09/08 07:19:34;;;;;;;3.75;0.95;;;14.50;99.90;;;;;;5027506;28;20071;-54
2022/09/08 07:22:49;;;;;;;2.40;1.15;;;14.60;99.90;;;;;;5035124;28;20047;-53
2022/09/08 07:25:21;;;;;;;1.10;0.90;;;14.70;99.90;;;;;;5034683;28;20052;-55
2022/09/08 07:27:54;;;;;;;1.30;1.10;;;14.70;99.90;;;;;;5033256;28;20082;-51
2022/09/08 07:30:21;;;;;;;2.22;0.82;;;14.70;99.90;;;;;;5032730;28;20056;-55
2022/09/08 07:33:11;;;;;;;;;;;14.80;99.90;;;;;;5034723;28;20060;-56
2022/09/08 07:36:16;;;;;;;0.95;0.80;;;14.80;99.90;;;;;;4999977;28;20649;-54
2022/09/08 07:38:48;;;;;;;3.67;1.25;;;14.80;99.90;;;;;;4996788;28;20059;-54
2022/09/08 07:41:33;;;;;;;5.97;1.23;;;14.70;99.90;;;;;;5034969;28;20649;-54
2022/09/08 07:44:02;;;;;;;2.70;1.20;;;14.60;99.90;;;;;;5033158;28;20128;-51
2022/09/08 07:46:52;;;;;;;3.70;1.33;;;14.70;99.90;;;;;;5034687;28;20051;-52
2022/09/08 07:49:36;;;;;;;2.03;1.10;;;15.10;99.90;;;;;;5040589;28;20449;-57
2022/09/08 07:52:42;;;;;;;2.75;1.80;;;16.00;99.90;;;;;;5042872;28;20051;-57
2022/09/08 07:55:37;;;;;;;1.50;1.02;;;16.90;99.90;;;;;;5042289;28;20663;-58
2022/09/08 07:58:28;;;;;;;2.00;1.00;;;17.60;99.90;;;;;;5043059;28;20091;-53
2022/09/08 08:01:10;;;;;;;1.27;0.80;;;18.30;99.90;;;;;;5041884;28;20045;-55
2022/09/08 08:03:54;;;;;;;1.77;0.60;;;18.70;99.90;;;;;;5039066;28;20045;-54
2022/09/08 08:06:34;;;;;;;1.50;0.73;;;18.90;99.90;;;;;;5016587;28;20496;-56
2022/09/08 08:09:10;;;;;;;2.30;0.50;;;19.10;99.90;;;;;;4986173;28;20045;-56
2022/09/08 08:11:46;;;;;;;0.70;0.70;;;19.30;99.90;;;;;;4985856;28;20604;-56
2022/09/08 08:14:26;;;;;;;0.57;0.57;;;19.50;99.90;;;;;;4978211;28;20547;-55
2022/09/08 08:17:24;;;;;;;0.57;0.43;;;19.70;99.90;;;;;;4983085;28;20039;-57
2022/09/08 08:20:06;;;;;;;0.55;0.55;;;19.80;99.90;;;;;;4987682;28;20242;-54
2022/09/08 08:23:00;;;;;;;2.33;0.40;;;20.00;99.90;;;;;;4989181;28;20036;-54
2022/09/08 08:25:34;;;;;;;1.25;0.57;;;20.00;99.90;;;;;;4986338;28;20041;-53
2022/09/08 08:28:16;;;;;;;0.93;0.60;;;20.10;99.90;;;;;;4988175;28;20105;-54
2022/09/08 08:30:49;;;;;;;1.88;0.40;;;20.00;99.90;;;;;;4987297;28;20580;-53
2022/09/08 08:33:32;;;;;;;0.93;0.60;;;20.00;99.90;;;;;;4985843;28;20048;-54
2022/09/08 08:36:09;;;;;;;0.63;0.50;;;19.90;99.90;;;;;;4968741;28;20155;-53
2022/09/08 08:38:47;;;;;;;0.50;0.50;;;19.90;99.90;;;;;;4987681;28;20045;-53
2022/09/08 08:41:33;;;;;;;0.50;0.50;;;19.90;99.90;;;;;;4982006;28;20055;-53
2022/09/08 08:44:42;;;;;;;2.55;0.60;;;20.10;99.90;;;;;;4989203;28;20520;-53
2022/09/08 08:47:28;;;;;;;1.10;0.50;;;20.10;99.90;;;;;;4981791;28;20400;-57
2022/09/08 08:50:20;;;;;;;1.92;0.80;;;19.90;99.90;;;;;;4990659;28;20051;-53
2022/09/08 08:53:11;;;;;;;3.40;0.60;;;19.70;99.90;;;;;;4984248;28;20048;-53
2022/09/08 08:56:16;;;;;;;4.13;0.60;;;19.70;99.90;;;;;;4987026;28;20735;-53
2022/09/08 08:58:52;;;;;;;1.92;0.70;;;19.70;99.90;;;;;;4984072;28;20099;-52
2022/09/08 09:02:05;;;;;;;1.65;0.68;;;19.70;99.90;;;;;;4983769;28;20048;-53
2022/09/08 09:04:53;;;;;;;2.42;0.55;;;19.90;99.90;;;;;;4924253;28;20774;-55
2022/09/08 09:07:30;;;;;;;1.63;0.95;;;20.10;99.90;;;;;;4981423;28;20199;-54
2022/09/08 09:10:16;;;;;;;1.02;0.70;;;20.30;99.90;;;;;;4984093;28;20095;-56
2022/09/08 09:13:15;;;;;;;4.65;0.80;;;20.50;99.90;;;;;;4972801;28;20048;-55
2022/09/08 09:15:50;;;;;;;1.27;0.77;;;20.70;99.90;;;;;;4983274;28;20484;-55
2022/09/08 09:19:06;;;;;;;1.52;0.60;;;20.80;99.90;;;;;;4983354;28;20227;-55
2022/09/08 09:21:45;;;;;;;3.05;0.80;;;21.00;99.90;;;;;;4946976;28;20057;-55
2022/09/08 09:24:21;;;;;;;4.03;0.85;;;21.00;99.90;;;;;;4968292;28;20040;-56
2022/09/08 09:26:51;;;;;;;0.85;0.73;;;21.00;99.90;;;;;;4967700;28;20120;-57
2022/09/08 09:29:24;;;;;;;1.00;0.60;;;20.90;99.90;;;;;;4968540;28;20045;-56
2022/09/08 09:32:10;;;;;;;1.25;0.60;;;20.90;99.90;;;;;;4948100;28;20542;-58
2022/09/08 09:34:55;;;;;;;3.47;1.17;;;21.00;99.90;;;;;;4965948;28;20214;-58
2022/09/08 09:37:47;;;;;;;4.75;0.90;;;21.10;99.90;;;;;;4968242;28;20578;-57
2022/09/08 09:40:27;;;;;;;0.50;0.40;;;21.30;99.90;;;;;;4966084;28;20874;-56
2022/09/08 09:43:12;;;;;;;5.00;0.93;;;21.10;99.90;;;;;;4966452;28;20899;-55
2022/09/08 09:45:59;;;;;;;2.65;0.50;;;20.90;99.90;;;;;;4967988;28;20057;-56
2022/09/08 09:48:35;;;;;;;1.02;0.70;;;20.70;99.90;;;;;;4986176;28;20142;-58
2022/09/08 09:51:24;;;;;;;1.00;0.83;;;20.50;99.90;;;;;;4985331;28;20041;-58
2022/09/08 09:54:26;;;;;;;2.63;0.85;;;20.50;99.90;;;;;;4987810;28;20455;-58
2022/09/08 09:56:59;;;;;;;2.08;0.88;;;20.80;99.90;;;;;;4977895;28;20554;-57
2022/09/08 09:59:58;;;;;;;1.50;0.70;;;21.10;99.90;;;;;;4992525;28;20064;-57
2022/09/08 10:02:30;;;;;;;4.68;0.90;;;21.40;99.90;;;;;;4985218;28;20233;-57
2022/09/08 10:05:48;;;;;;;1.50;0.75;;;21.40;99.90;;;;;;4991117;28;20558;-57
2022/09/08 10:08:43;;;;;;;0.53;0.50;;;21.30;99.90;;;;;;4960811;28;20167;-57
2022/09/08 10:11:11;;;;;;;2.85;1.25;;;21.00;99.90;;;;;;4990107;28;20037;-57
2022/09/08 10:14:15;;;;;;;2.10;0.93;;;20.70;99.90;;;;;;4986248;28;20392;-57
2022/09/08 10:17:15;;;;;;;3.22;0.90;;;20.40;99.90;;;;;;4978125;28;20037;-57
2022/09/08 10:20:12;;;;;;;1.80;0.80;;;20.10;99.90;;;;;;4985287;28;20064;-57
2022/09/08 10:23:10;;;;;;;7.97;0.90;;;20.00;99.90;;;;;;4991108;28;20593;-56
2022/09/08 10:25:52;;;;;;;0.60;0.57;;;20.10;99.90;;;;;;4985275;28;20909;-56
2022/09/08 10:28:48;;;;;;;2.85;0.82;;;20.40;99.90;;;;;;4988877;28;20049;-57
2022/09/08 10:32:11;;;;;;;4.18;0.88;;;20.60;99.90;;;;;;4988033;28;20556;-57
2022/09/08 10:35:38;;;;;;;2.60;0.98;;;20.90;99.90;;;;;;4982529;28;20555;-55
2022/09/08 10:38:44;;;;;;;1.60;0.80;;;20.80;99.90;;;;;;4966716;28;20753;-57
2022/09/08 10:41:48;;;;;;;1.73;0.88;;;20.70;99.90;;;;;;4962047;28;20337;-57
2022/09/08 10:44:27;;;;;;;1.23;0.93;;;20.80;99.90;;;;;;4969603;28;20291;-56
2022/09/08 10:47:19;;;;;;;1.27;0.85;;;20.70;99.90;;;;;;4986090;28;20603;-57
2022/09/08 10:50:19;;;;;;;2.83;0.75;;;20.70;99.90;;;;;;4992039;28;20048;-58
2022/09/08 10:53:07;;;;;;;2.17;0.82;;;20.70;99.90;;;;;;4974574;28;20613;-57
2022/09/08 10:56:06;;;;;;;1.65;0.95;;;20.70;99.90;;;;;;4991095;28;20360;-56
2022/09/08 10:58:50;;;;;;;2.20;0.73;;;20.60;99.90;;;;;;4986619;28;20375;-58
2022/09/08 11:02:07;;;;;;;3.72;1.02;;;20.60;99.90;;;;;;4988553;28;20041;-58
2022/09/08 11:05:10;;;;;;;1.65;0.98;;;20.70;99.90;;;;;;4988372;28;20041;-57
2022/09/08 11:08:07;;;;;;;2.28;0.90;;;21.00;99.90;;;;;;4968284;28;20041;-58
2022/09/08 11:10:58;;;;;;;3.05;0.93;;;21.40;99.90;;;;;;4984099;28;20037;-58
2022/09/08 11:13:59;;;;;;;1.45;0.90;;;21.90;99.90;;;;;;4986818;28;20155;-58
2022/09/08 11:16:47;;;;;;;4.57;1.13;;;22.00;99.90;;;;;;4983921;28;20037;-57
2022/09/08 11:19:33;;;;;;;3.03;0.93;;;21.90;99.90;;;;;;4986154;28;20418;-58
2022/09/08 11:22:20;;;;;;;3.50;1.00;;;21.80;99.90;;;;;;4987472;28;20680;-57
2022/09/08 11:24:53;;;;;;;2.25;1.02;;;21.70;99.90;;;;;;4988272;28;20052;-57
2022/09/08 11:27:33;;;;;;;0.65;0.65;;;21.70;99.90;;;;;;4984679;28;20920;-57
2022/09/08 11:30:03;;;;;;;1.23;0.90;;;21.70;99.90;;;;;;4985959;28;20880;-57
2022/09/08 11:32:40;;;;;;;2.28;0.95;;;21.50;99.90;;;;;;4987103;28;20047;-57
2022/09/08 11:35:18;;;;;;;5.57;0.93;;;21.40;99.90;;;;;;4987313;28;20083;-57
2022/09/08 11:38:10;;;;;;;1.90;0.93;;;21.20;99.90;;;;;;4988733;28;20248;-57
2022/09/08 11:41:06;;;;;;;1.10;0.70;;;21.00;99.90;;;;;;4966106;28;20776;-56
2022/09/08 11:43:57;;;;;;;0.85;0.82;;;20.80;99.90;;;;;;4987160;28;20190;-62
2022/09/08 11:46:46;;;;;;;4.22;1.20;;;20.70;99.90;;;;;;4986118;28;20531;-55
2022/09/08 11:49:28;;;;;;;1.30;0.77;;;20.70;99.90;;;;;;4988077;28;20045;-65
2022/09/08 11:52:30;;;;;;;2.20;0.98;;;20.90;99.90;;;;;;4983128;28;20059;-54
2022/09/08 11:55:31;;;;;;;1.25;0.73;;;21.30;99.90;;;;;;4988438;28;20144;-56
2022/09/08 11:57:58;;;;;;;4.97;2.05;;;21.70;99.90;;;;;;4984777;28;20388;-54
2022/09/08 12:00:40;;;;;;;1.88;0.80;;;22.10;99.90;;;;;;4987400;28;20750;-56
2022/09/08 12:03:43;;;;;;;6.13;1.45;;;22.20;99.90;;;;;;4985804;28;20045;-57
2022/09/08 12:06:37;;;;;;;1.88;1.00;;;22.40;99.90;;;;;;4988250;28;20123;-56
2022/09/08 12:09:34;;;;;;;1.75;0.90;;;22.60;99.90;;;;;;4962391;28;20053;-64
2022/09/08 12:12:29;;;;;;;2.38;1.27;;;22.60;99.90;;;;;;4984268;28;20197;-56
2022/09/08 12:15:12;;;;;;;1.48;0.77;;;22.40;99.90;;;;;;4984433;28;20033;-57
2022/09/08 12:17:59;;;;;;;3.15;0.98;;;22.20;99.90;;;;;;4984701;28;20861;-60
2022/09/08 12:20:37;;;;;;;2.33;1.02;;;22.10;99.90;;;;;;4983688;28;20041;-66
2022/09/08 12:23:35;;;;;;;6.38;1.15;;;21.90;99.90;;;;;;4985011;28;20041;-57
2022/09/08 12:26:40;;;;;;;3.90;1.20;;;22.00;99.90;;;;;;4986559;28;20257;-57
2022/09/08 12:29:10;;;;;;;1.70;1.02;;;21.90;99.90;;;;;;4972053;28;20445;-57
2022/09/08 12:32:03;;;;;;;4.72;1.25;;;21.80;99.90;;;;;;4983486;28;20041;-54
2022/09/08 12:34:49;;;;;;;1.17;0.73;;;21.70;99.90;;;;;;4965554;28;20202;-58
2022/09/08 12:37:36;;;;;;;2.25;0.77;;;21.90;99.90;;;;;;4975361;28;20142;-61
2022/09/08 12:40:03;;;;;;;;;;;22.30;99.90;;;;;;4966510;28;20826;-58
2022/09/08 12:43:01;;;;;;;1.48;1.02;;;22.40;99.50;;;;;;4977249;28;20659;-56
2022/09/08 12:46:07;;;;;;;7.68;1.17;;;22.50;98.20;;;;;;4987198;28;20040;-55
2022/09/08 12:49:11;;;;;;;1.52;0.80;;;22.30;98.40;;;;;;4987527;28;20360;-56
2022/09/08 12:51:38;;;;;;;2.05;0.70;;;22.20;99.90;;;;;;4967983;28;20577;-57
2022/09/08 12:54:33;;;;;;;5.93;1.00;;;22.10;99.40;;;;;;4962679;28;20075;-57
2022/09/08 12:57:12;;;;;;;2.38;0.98;;;22.00;99.50;;;;;;4967063;28;20060;-54
2022/09/08 12:59:48;;;;;;;2.28;0.98;;;22.10;99.90;;;;;;4987354;28;20897;-58
2022/09/08 13:02:47;;;;;;;2.13;0.80;;;22.40;98.40;;;;;;4984388;28;20037;-56
2022/09/08 13:05:42;;;;;;;4.22;0.93;;;22.70;93.90;;;;;;4986541;28;20103;-56
2022/09/08 13:08:17;;;;;;;1.85;0.93;;;23.00;94.70;;;;;;4985396;28;20450;-57
2022/09/08 13:10:46;;;;;;;1.52;0.60;;;23.30;90.10;;;;;;4966434;28;20052;-58
2022/09/08 13:13:37;;;;;;;1.65;0.80;;;23.60;82.50;;;;;;4984247;28;21031;-64
2022/09/08 13:16:13;;;;;;;1.73;0.90;;;23.70;76.00;;;;;;4966869;28;20597;-58
2022/09/08 13:18:59;;;;;;;2.03;0.80;;;23.90;80.60;;;;;;4968443;28;20040;-57
2022/09/08 13:21:41;;;;;;;0.60;0.60;;;24.10;77.50;;;;;;4971001;28;20214;-57
2022/09/08 13:24:35;;;;;;;2.45;0.90;;;24.30;75.00;;;;;;4979802;28;20754;-57
2022/09/08 13:27:18;;;;;;;1.00;0.80;;;24.40;72.80;;;;;;4992721;28;20052;-58
2022/09/08 13:30:03;;;;;;;2.47;0.57;;;24.60;70.90;;;;;;4988876;28;20577;-58
2022/09/08 13:32:59;;;;;;;1.00;0.65;;;24.60;66.20;;;;;;4993152;28;20041;-55
2022/09/08 13:36:04;;;;;;;1.55;0.63;;;24.40;65.10;;;;;;4979803;28;20750;-55
2022/09/08 13:39:12;;;;;;;1.42;0.68;;;24.10;66.00;;;;;;4984504;28;20037;-59
2022/09/08 13:42:06;;;;;;;1.13;0.80;;;23.70;69.00;;;;;;4964953;28;20794;-56
2022/09/08 13:45:07;;;;;;;1.27;0.77;;;23.30;71.00;;;;;;4975896;28;20040;-58
2022/09/08 13:48:22;;;;;;;1.17;0.68;;;23.00;72.40;;;;;;4939587;28;20115;-57
2022/09/08 13:51:16;;;;;;;2.95;0.90;;;22.70;79.60;;;;;;4917323;28;20166;-58
2022/09/08 13:54:07;;;;;;;1.13;0.60;;;22.60;75.60;;;;;;4948605;28;20907;-58
2022/09/08 13:56:58;;;;;;;1.25;0.80;;;22.50;79.10;;;;;;4984446;28;20437;-55
2022/09/08 13:59:50;;;;;;;2.70;0.57;;;22.30;76.80;;;;;;4964568;28;20244;-57
2022/09/08 14:02:37;;;;;;;2.60;0.60;;;22.10;82.30;;;;;;4959636;28;20119;-57